KCOQ

Details ICAO KCOQ
Name CLOQUET CARLTON CO
Region United States
Timezone America/Chicago (UTC-6.0)
Plans Departing 1
Arriving 2
Stats Elevation 1,279 ft / 390 m (AMSL)
Location 46.701275° -92.503325°
Runways 2
Magnetic Variation 0.642° W
Sunrise 2017-12-13 13:47:56 UTC / 2017-12-13 07:47:56 Local
Sunset 2017-12-13 22:23:34 UTC / 2017-12-13 16:23:34 Local
Advertisement - Login to hide

Runways

ID Width Length Bearing (true) Bearing (mag) Surface Threshold Offset Overrun Length
07 75 ft / 23 m 3,093 ft / 943 m 72.84° 73.48° Asphalt 0 ft / 0 m 0 ft / 0 m
17 75 ft / 23 m 4,005 ft / 1,221 m 179.19° 179.83° Asphalt 0 ft / 0 m 0 ft / 0 m
25 75 ft / 23 m 3,093 ft / 943 m 252.85° 253.49° Asphalt 0 ft / 0 m 0 ft / 0 m
35 75 ft / 23 m 4,005 ft / 1,221 m 359.19° 359.83° Asphalt 0 ft / 0 m 0 ft / 0 m

Map

Weather


0- 5 10 15 20 25 30 35+ Temperature / ° C

Clouds and Precipitation
Forecast for 2017-12-14 00:00 UTC. Updated 2 hours ago

Ground ~20,000 ft ~40,000 ft Winds

METAR

KCOQ 140055Z AUTO 34008KT 10SM OVC039 M07/M11 A2985 RMK AO2

TAF

Not found

Frequencies

Recorded 118.52 MHz AWOS 3
Clearance 122.15 MHz DULUTH CLNC DEL
Unicom 122.80 MHz CTAF/UNICOM
Approach 125.45 MHz DULUTH APP/DEP
Warning: Do not use this data for real-world aviation or navigation. No guarantee of current accuracy is given.